sensor_id;sensor_type;location;lat;lon;timestamp;P1;durP1;ratioP1;P2;durP2;ratioP2
1691;SDS011;843;52.054;8.552;2023-03-21T00:00:55;14.97;;;8.30;;
1691;SDS011;843;52.054;8.552;2023-03-21T00:03:22;24.70;;;9.97;;
1691;SDS011;843;52.054;8.552;2023-03-21T00:05:48;16.93;;;8.07;;
1691;SDS011;843;52.054;8.552;2023-03-21T00:08:17;17.33;;;8.27;;
1691;SDS011;843;52.054;8.552;2023-03-21T00:10:44;15.00;;;8.90;;
1691;SDS011;843;52.054;8.552;2023-03-21T00:13:10;15.10;;;9.53;;
1691;SDS011;843;52.054;8.552;2023-03-21T00:15:38;15.30;;;8.60;;
1691;SDS011;843;52.054;8.552;2023-03-21T00:18:14;15.63;;;9.30;;
1691;SDS011;843;52.054;8.552;2023-03-21T00:20:40;17.87;;;9.00;;
1691;SDS011;843;52.054;8.552;2023-03-21T00:23:11;14.57;;;8.43;;
1691;SDS011;843;52.054;8.552;2023-03-21T00:25:37;16.47;;;9.73;;
1691;SDS011;843;52.054;8.552;2023-03-21T00:28:04;17.23;;;8.77;;
1691;SDS011;843;52.054;8.552;2023-03-21T00:30:30;14.53;;;8.97;;
1691;SDS011;843;52.054;8.552;2023-03-21T00:32:58;15.33;;;9.10;;
1691;SDS011;843;52.054;8.552;2023-03-21T00:35:24;15.70;;;9.43;;
1691;SDS011;843;52.054;8.552;2023-03-21T00:37:51;15.93;;;8.83;;
1691;SDS011;843;52.054;8.552;2023-03-21T00:40:17;19.87;;;9.63;;
1691;SDS011;843;52.054;8.552;2023-03-21T00:42:44;14.67;;;8.97;;
1691;SDS011;843;52.054;8.552;2023-03-21T00:45:10;17.57;;;9.33;;
1691;SDS011;843;52.054;8.552;2023-03-21T00:47:37;17.30;;;8.97;;
1691;SDS011;843;52.054;8.552;2023-03-21T00:50:05;19.70;;;10.17;;
1691;SDS011;843;52.054;8.552;2023-03-21T00:52:32;21.10;;;9.70;;
1691;SDS011;843;52.054;8.552;2023-03-21T00:54:59;20.43;;;9.37;;
1691;SDS011;843;52.054;8.552;2023-03-21T00:57:25;16.73;;;10.23;;
1691;SDS011;843;52.054;8.552;2023-03-21T00:59:52;18.20;;;10.33;;
1691;SDS011;843;52.054;8.552;2023-03-21T01:02:22;15.00;;;10.07;;
1691;SDS011;843;52.054;8.552;2023-03-21T01:04:50;27.23;;;11.03;;
1691;SDS011;843;52.054;8.552;2023-03-21T01:07:18;22.50;;;11.57;;
1691;SDS011;843;52.054;8.552;2023-03-21T01:09:44;19.73;;;11.53;;
1691;SDS011;843;52.054;8.552;2023-03-21T01:12:11;24.20;;;13.13;;
1691;SDS011;843;52.054;8.552;2023-03-21T01:14:37;18.80;;;12.27;;
1691;SDS011;843;52.054;8.552;2023-03-21T01:17:04;19.20;;;11.80;;
1691;SDS011;843;52.054;8.552;2023-03-21T01:19:30;18.93;;;12.10;;
1691;SDS011;843;52.054;8.552;2023-03-21T01:21:57;24.30;;;10.63;;
1691;SDS011;843;52.054;8.552;2023-03-21T01:24:25;18.90;;;12.00;;
1691;SDS011;843;52.054;8.552;2023-03-21T01:26:52;20.77;;;11.67;;
1691;SDS011;843;52.054;8.552;2023-03-21T01:29:18;17.60;;;11.37;;
1691;SDS011;843;52.054;8.552;2023-03-21T01:31:45;20.77;;;12.60;;
1691;SDS011;843;52.054;8.552;2023-03-21T01:34:11;23.27;;;12.87;;
1691;SDS011;843;52.054;8.552;2023-03-21T01:36:38;24.03;;;12.17;;
1691;SDS011;843;52.054;8.552;2023-03-21T01:39:04;19.00;;;13.27;;
1691;SDS011;843;52.054;8.552;2023-03-21T01:41:33;20.10;;;12.87;;
1691;SDS011;843;52.054;8.552;2023-03-21T01:44:00;21.30;;;12.40;;
1691;SDS011;843;52.054;8.552;2023-03-21T01:46:36;20.10;;;12.93;;
1691;SDS011;843;52.054;8.552;2023-03-21T01:49:04;20.47;;;12.53;;
1691;SDS011;843;52.054;8.552;2023-03-21T01:51:32;22.93;;;13.60;;
1691;SDS011;843;52.054;8.552;2023-03-21T01:53:59;25.90;;;13.63;;
1691;SDS011;843;52.054;8.552;2023-03-21T01:56:27;19.73;;;12.67;;
1691;SDS011;843;52.054;8.552;2023-03-21T01:58:58;19.60;;;14.00;;
1691;SDS011;843;52.054;8.552;2023-03-21T02:01:27;20.40;;;12.43;;
1691;SDS011;843;52.054;8.552;2023-03-21T02:03:56;25.33;;;13.50;;
1691;SDS011;843;52.054;8.552;2023-03-21T02:06:29;28.63;;;15.40;;
1691;SDS011;843;52.054;8.552;2023-03-21T02:08:57;21.67;;;13.73;;
1691;SDS011;843;52.054;8.552;2023-03-21T02:11:25;22.60;;;14.40;;
1691;SDS011;843;52.054;8.552;2023-03-21T02:13:53;22.53;;;14.50;;
1691;SDS011;843;52.054;8.552;2023-03-21T02:16:23;25.37;;;16.70;;
1691;SDS011;843;52.054;8.552;2023-03-21T02:18:53;30.10;;;17.97;;
1691;SDS011;843;52.054;8.552;2023-03-21T02:24:14;22.67;;;14.77;;
1691;SDS011;843;52.054;8.552;2023-03-21T02:26:54;28.93;;;17.70;;
1691;SDS011;843;52.054;8.552;2023-03-21T02:32:11;24.20;;;16.17;;
1691;SDS011;843;52.054;8.552;2023-03-21T02:34:50;32.50;;;16.77;;
1691;SDS011;843;52.054;8.552;2023-03-21T02:37:22;26.80;;;17.27;;
1691;SDS011;843;52.054;8.552;2023-03-21T02:39:54;26.60;;;17.83;;
1691;SDS011;843;52.054;8.552;2023-03-21T02:42:22;26.20;;;16.03;;
1691;SDS011;843;52.054;8.552;2023-03-21T02:44:54;27.90;;;16.90;;
1691;SDS011;843;52.054;8.552;2023-03-21T02:47:23;29.50;;;16.33;;
1691;SDS011;843;52.054;8.552;2023-03-21T02:49:51;26.73;;;18.17;;
1691;SDS011;843;52.054;8.552;2023-03-21T02:52:19;28.03;;;17.50;;
1691;SDS011;843;52.054;8.552;2023-03-21T02:54:47;26.60;;;17.50;;
1691;SDS011;843;52.054;8.552;2023-03-21T02:57:15;26.27;;;19.40;;
1691;SDS011;843;52.054;8.552;2023-03-21T02:59:42;36.10;;;17.67;;
1691;SDS011;843;52.054;8.552;2023-03-21T03:02:09;31.60;;;18.67;;
1691;SDS011;843;52.054;8.552;2023-03-21T03:04:36;28.80;;;17.53;;
1691;SDS011;843;52.054;8.552;2023-03-21T03:07:07;34.03;;;18.00;;
1691;SDS011;843;52.054;8.552;2023-03-21T03:09:37;42.77;;;19.73;;
1691;SDS011;843;52.054;8.552;2023-03-21T03:12:08;28.87;;;18.50;;
1691;SDS011;843;52.054;8.552;2023-03-21T03:14:41;28.53;;;19.40;;
1691;SDS011;843;52.054;8.552;2023-03-21T03:17:16;30.73;;;19.63;;
1691;SDS011;843;52.054;8.552;2023-03-21T03:19:44;32.57;;;21.17;;
1691;SDS011;843;52.054;8.552;2023-03-21T03:22:16;29.83;;;19.67;;
1691;SDS011;843;52.054;8.552;2023-03-21T03:24:45;29.30;;;19.93;;
1691;SDS011;843;52.054;8.552;2023-03-21T03:27:14;33.63;;;19.70;;
1691;SDS011;843;52.054;8.552;2023-03-21T03:29:43;34.37;;;18.67;;
1691;SDS011;843;52.054;8.552;2023-03-21T03:32:12;32.77;;;19.90;;
1691;SDS011;843;52.054;8.552;2023-03-21T03:34:40;29.33;;;19.10;;
1691;SDS011;843;52.054;8.552;2023-03-21T03:37:10;30.40;;;19.37;;
1691;SDS011;843;52.054;8.552;2023-03-21T03:39:40;27.53;;;18.43;;
1691;SDS011;843;52.054;8.552;2023-03-21T03:42:11;32.40;;;18.97;;
1691;SDS011;843;52.054;8.552;2023-03-21T03:44:39;30.33;;;21.00;;
1691;SDS011;843;52.054;8.552;2023-03-21T03:47:07;33.47;;;18.53;;
1691;SDS011;843;52.054;8.552;2023-03-21T03:49:35;28.97;;;19.30;;
1691;SDS011;843;52.054;8.552;2023-03-21T03:52:03;35.77;;;19.10;;
1691;SDS011;843;52.054;8.552;2023-03-21T03:54:32;30.60;;;19.77;;
1691;SDS011;843;52.054;8.552;2023-03-21T03:57:01;29.40;;;17.60;;
1691;SDS011;843;52.054;8.552;2023-03-21T03:59:28;32.60;;;20.40;;
1691;SDS011;843;52.054;8.552;2023-03-21T04:01:56;27.77;;;18.23;;
1691;SDS011;843;52.054;8.552;2023-03-21T04:04:22;37.07;;;18.20;;
1691;SDS011;843;52.054;8.552;2023-03-21T04:06:52;28.47;;;17.60;;
1691;SDS011;843;52.054;8.552;2023-03-21T04:09:19;27.47;;;16.43;;
1691;SDS011;843;52.054;8.552;2023-03-21T04:11:45;26.87;;;15.97;;
1691;SDS011;843;52.054;8.552;2023-03-21T04:14:11;30.90;;;15.87;;
1691;SDS011;843;52.054;8.552;2023-03-21T04:16:38;27.07;;;15.33;;
1691;SDS011;843;52.054;8.552;2023-03-21T04:19:06;25.87;;;14.87;;
1691;SDS011;843;52.054;8.552;2023-03-21T04:21:32;24.37;;;14.10;;
1691;SDS011;843;52.054;8.552;2023-03-21T04:23:59;25.97;;;14.93;;
1691;SDS011;843;52.054;8.552;2023-03-21T04:26:26;23.77;;;13.93;;
1691;SDS011;843;52.054;8.552;2023-03-21T04:28:57;26.40;;;15.20;;
1691;SDS011;843;52.054;8.552;2023-03-21T04:31:24;22.43;;;15.20;;
1691;SDS011;843;52.054;8.552;2023-03-21T04:33:52;20.23;;;13.23;;
1691;SDS011;843;52.054;8.552;2023-03-21T04:36:21;24.20;;;13.13;;
1691;SDS011;843;52.054;8.552;2023-03-21T04:38:51;19.13;;;12.40;;
1691;SDS011;843;52.054;8.552;2023-03-21T04:41:18;20.33;;;14.20;;
1691;SDS011;843;52.054;8.552;2023-03-21T04:43:44;22.37;;;13.30;;
1691;SDS011;843;52.054;8.552;2023-03-21T04:46:11;26.27;;;13.00;;
1691;SDS011;843;52.054;8.552;2023-03-21T04:48:37;21.03;;;12.10;;
1691;SDS011;843;52.054;8.552;2023-03-21T04:51:04;24.20;;;13.00;;
1691;SDS011;843;52.054;8.552;2023-03-21T04:53:32;17.70;;;12.40;;
1691;SDS011;843;52.054;8.552;2023-03-21T04:55:58;21.20;;;12.60;;
1691;SDS011;843;52.054;8.552;2023-03-21T04:58:25;20.33;;;12.63;;
1691;SDS011;843;52.054;8.552;2023-03-21T05:00:52;24.03;;;13.50;;
1691;SDS011;843;52.054;8.552;2023-03-21T05:03:18;16.97;;;12.33;;
1691;SDS011;843;52.054;8.552;2023-03-21T05:05:46;22.07;;;12.20;;
1691;SDS011;843;52.054;8.552;2023-03-21T05:08:13;23.57;;;14.43;;
1691;SDS011;843;52.054;8.552;2023-03-21T05:10:41;23.47;;;12.70;;
1691;SDS011;843;52.054;8.552;2023-03-21T05:13:07;26.53;;;13.90;;
1691;SDS011;843;52.054;8.552;2023-03-21T05:15:34;23.47;;;12.67;;
1691;SDS011;843;52.054;8.552;2023-03-21T05:18:00;24.60;;;14.23;;
1691;SDS011;843;52.054;8.552;2023-03-21T05:20:34;26.80;;;13.43;;
1691;SDS011;843;52.054;8.552;2023-03-21T05:23:01;19.90;;;13.47;;
1691;SDS011;843;52.054;8.552;2023-03-21T05:25:29;21.90;;;13.37;;
1691;SDS011;843;52.054;8.552;2023-03-21T05:28:01;28.53;;;13.53;;
1691;SDS011;843;52.054;8.552;2023-03-21T05:30:27;21.70;;;12.53;;
1691;SDS011;843;52.054;8.552;2023-03-21T05:32:54;23.97;;;13.47;;
1691;SDS011;843;52.054;8.552;2023-03-21T05:35:20;24.90;;;13.53;;
1691;SDS011;843;52.054;8.552;2023-03-21T05:37:47;29.10;;;14.10;;
1691;SDS011;843;52.054;8.552;2023-03-21T05:40:13;25.73;;;15.40;;
1691;SDS011;843;52.054;8.552;2023-03-21T05:42:40;22.43;;;13.57;;
1691;SDS011;843;52.054;8.552;2023-03-21T05:45:08;23.77;;;13.63;;
1691;SDS011;843;52.054;8.552;2023-03-21T05:47:34;22.47;;;13.23;;
1691;SDS011;843;52.054;8.552;2023-03-21T05:50:01;24.53;;;12.90;;
1691;SDS011;843;52.054;8.552;2023-03-21T05:52:27;22.60;;;13.70;;
1691;SDS011;843;52.054;8.552;2023-03-21T05:54:54;27.17;;;14.57;;
1691;SDS011;843;52.054;8.552;2023-03-21T05:57:21;21.50;;;14.10;;
1691;SDS011;843;52.054;8.552;2023-03-21T05:59:47;25.43;;;13.60;;
1691;SDS011;843;52.054;8.552;2023-03-21T06:02:15;21.37;;;14.43;;
1691;SDS011;843;52.054;8.552;2023-03-21T06:04:41;23.10;;;15.17;;
1691;SDS011;843;52.054;8.552;2023-03-21T06:07:08;21.90;;;13.73;;
1691;SDS011;843;52.054;8.552;2023-03-21T06:09:34;24.00;;;13.87;;
1691;SDS011;843;52.054;8.552;2023-03-21T06:12:01;26.57;;;13.40;;
1691;SDS011;843;52.054;8.552;2023-03-21T06:14:27;26.53;;;13.30;;
1691;SDS011;843;52.054;8.552;2023-03-21T06:16:54;25.53;;;13.70;;
1691;SDS011;843;52.054;8.552;2023-03-21T06:19:21;23.27;;;15.63;;
1691;SDS011;843;52.054;8.552;2023-03-21T06:21:48;20.20;;;14.13;;
1691;SDS011;843;52.054;8.552;2023-03-21T06:24:14;20.57;;;12.90;;
1691;SDS011;843;52.054;8.552;2023-03-21T06:26:42;26.20;;;13.77;;
1691;SDS011;843;52.054;8.552;2023-03-21T06:29:08;23.30;;;14.37;;
1691;SDS011;843;52.054;8.552;2023-03-21T06:31:35;22.10;;;13.70;;
1691;SDS011;843;52.054;8.552;2023-03-21T06:34:01;22.80;;;13.43;;
1691;SDS011;843;52.054;8.552;2023-03-21T06:36:29;19.80;;;14.20;;
1691;SDS011;843;52.054;8.552;2023-03-21T06:38:55;23.40;;;13.10;;
1691;SDS011;843;52.054;8.552;2023-03-21T06:41:22;22.60;;;13.50;;
1691;SDS011;843;52.054;8.552;2023-03-21T06:43:48;25.73;;;13.77;;
1691;SDS011;843;52.054;8.552;2023-03-21T06:46:15;21.43;;;14.43;;
1691;SDS011;843;52.054;8.552;2023-03-21T06:48:41;25.07;;;14.73;;
1691;SDS011;843;52.054;8.552;2023-03-21T06:51:10;25.67;;;13.03;;
1691;SDS011;843;52.054;8.552;2023-03-21T06:53:37;23.50;;;13.87;;
1691;SDS011;843;52.054;8.552;2023-03-21T06:56:06;19.93;;;13.50;;
1691;SDS011;843;52.054;8.552;2023-03-21T06:58:32;21.57;;;12.53;;
1691;SDS011;843;52.054;8.552;2023-03-21T07:00:59;21.70;;;13.37;;
1691;SDS011;843;52.054;8.552;2023-03-21T07:03:27;19.43;;;13.43;;
1691;SDS011;843;52.054;8.552;2023-03-21T07:05:53;22.97;;;13.60;;
1691;SDS011;843;52.054;8.552;2023-03-21T07:08:20;22.30;;;12.57;;
1691;SDS011;843;52.054;8.552;2023-03-21T07:10:49;23.50;;;13.43;;
1691;SDS011;843;52.054;8.552;2023-03-21T07:13:15;17.87;;;12.63;;
1691;SDS011;843;52.054;8.552;2023-03-21T07:15:42;21.43;;;12.20;;
1691;SDS011;843;52.054;8.552;2023-03-21T07:18:08;25.43;;;14.00;;
1691;SDS011;843;52.054;8.552;2023-03-21T07:20:35;20.97;;;14.07;;
1691;SDS011;843;52.054;8.552;2023-03-21T07:23:03;23.83;;;13.13;;
1691;SDS011;843;52.054;8.552;2023-03-21T07:25:29;23.13;;;13.80;;
1691;SDS011;843;52.054;8.552;2023-03-21T07:27:57;24.47;;;13.50;;
1691;SDS011;843;52.054;8.552;2023-03-21T07:30:24;28.13;;;14.20;;
1691;SDS011;843;52.054;8.552;2023-03-21T07:32:51;22.50;;;14.37;;
1691;SDS011;843;52.054;8.552;2023-03-21T07:35:18;18.63;;;13.57;;
1691;SDS011;843;52.054;8.552;2023-03-21T07:37:45;19.37;;;13.40;;
1691;SDS011;843;52.054;8.552;2023-03-21T07:40:11;23.23;;;14.83;;
1691;SDS011;843;52.054;8.552;2023-03-21T07:42:38;22.67;;;12.70;;
1691;SDS011;843;52.054;8.552;2023-03-21T07:45:07;24.67;;;11.80;;
1691;SDS011;843;52.054;8.552;2023-03-21T07:47:34;21.97;;;13.03;;
1691;SDS011;843;52.054;8.552;2023-03-21T07:50:00;25.83;;;12.93;;
1691;SDS011;843;52.054;8.552;2023-03-21T07:52:28;26.00;;;14.00;;
1691;SDS011;843;52.054;8.552;2023-03-21T07:54:55;21.27;;;13.97;;
1691;SDS011;843;52.054;8.552;2023-03-21T07:57:21;21.53;;;11.80;;
1691;SDS011;843;52.054;8.552;2023-03-21T07:59:47;23.90;;;14.10;;
1691;SDS011;843;52.054;8.552;2023-03-21T08:02:25;20.60;;;13.87;;
1691;SDS011;843;52.054;8.552;2023-03-21T08:04:51;24.20;;;14.90;;
1691;SDS011;843;52.054;8.552;2023-03-21T08:07:18;24.03;;;12.77;;
1691;SDS011;843;52.054;8.552;2023-03-21T08:09:44;20.73;;;12.90;;
1691;SDS011;843;52.054;8.552;2023-03-21T08:12:11;21.00;;;13.47;;
1691;SDS011;843;52.054;8.552;2023-03-21T08:14:37;23.60;;;14.80;;
1691;SDS011;843;52.054;8.552;2023-03-21T08:17:03;22.60;;;12.40;;
1691;SDS011;843;52.054;8.552;2023-03-21T08:19:32;21.20;;;11.63;;
1691;SDS011;843;52.054;8.552;2023-03-21T08:21:58;19.90;;;12.93;;
1691;SDS011;843;52.054;8.552;2023-03-21T08:24:25;23.50;;;12.33;;
1691;SDS011;843;52.054;8.552;2023-03-21T08:26:52;25.10;;;13.10;;
1691;SDS011;843;52.054;8.552;2023-03-21T08:29:18;27.97;;;12.57;;
1691;SDS011;843;52.054;8.552;2023-03-21T08:31:45;18.80;;;10.73;;
1691;SDS011;843;52.054;8.552;2023-03-21T08:34:12;21.40;;;12.33;;
1691;SDS011;843;52.054;8.552;2023-03-21T08:36:41;20.90;;;11.50;;
1691;SDS011;843;52.054;8.552;2023-03-21T08:39:07;19.17;;;12.07;;
1691;SDS011;843;52.054;8.552;2023-03-21T08:41:34;20.03;;;12.03;;
1691;SDS011;843;52.054;8.552;2023-03-21T08:44:01;20.87;;;13.17;;
1691;SDS011;843;52.054;8.552;2023-03-21T08:46:28;26.13;;;11.73;;
1691;SDS011;843;52.054;8.552;2023-03-21T08:48:54;22.30;;;14.17;;
1691;SDS011;843;52.054;8.552;2023-03-21T08:51:21;26.37;;;12.13;;
1691;SDS011;843;52.054;8.552;2023-03-21T08:53:48;27.83;;;14.13;;
1691;SDS011;843;52.054;8.552;2023-03-21T08:56:15;23.43;;;13.67;;
1691;SDS011;843;52.054;8.552;2023-03-21T08:58:42;24.60;;;15.50;;
1691;SDS011;843;52.054;8.552;2023-03-21T09:01:08;26.50;;;15.43;;
1691;SDS011;843;52.054;8.552;2023-03-21T09:03:35;25.90;;;14.07;;
1691;SDS011;843;52.054;8.552;2023-03-21T09:06:02;26.03;;;14.17;;
1691;SDS011;843;52.054;8.552;2023-03-21T09:08:28;21.10;;;13.37;;
1691;SDS011;843;52.054;8.552;2023-03-21T09:10:56;33.70;;;13.83;;
1691;SDS011;843;52.054;8.552;2023-03-21T09:13:23;24.10;;;13.13;;
1691;SDS011;843;52.054;8.552;2023-03-21T09:15:49;22.03;;;13.30;;
1691;SDS011;843;52.054;8.552;2023-03-21T09:18:17;27.80;;;13.77;;
1691;SDS011;843;52.054;8.552;2023-03-21T09:20:47;26.87;;;13.83;;
1691;SDS011;843;52.054;8.552;2023-03-21T09:23:14;23.97;;;13.20;;
1691;SDS011;843;52.054;8.552;2023-03-21T09:25:44;21.90;;;12.50;;
1691;SDS011;843;52.054;8.552;2023-03-21T09:28:12;22.20;;;12.20;;
1691;SDS011;843;52.054;8.552;2023-03-21T09:30:40;21.73;;;12.57;;
1691;SDS011;843;52.054;8.552;2023-03-21T09:33:07;21.40;;;14.00;;
1691;SDS011;843;52.054;8.552;2023-03-21T09:35:37;23.23;;;13.97;;
1691;SDS011;843;52.054;8.552;2023-03-21T09:38:04;29.47;;;14.10;;
1691;SDS011;843;52.054;8.552;2023-03-21T09:40:37;19.03;;;12.57;;
1691;SDS011;843;52.054;8.552;2023-03-21T09:43:07;25.70;;;13.47;;
1691;SDS011;843;52.054;8.552;2023-03-21T09:45:39;21.70;;;13.27;;
1691;SDS011;843;52.054;8.552;2023-03-21T09:48:08;20.97;;;12.20;;
1691;SDS011;843;52.054;8.552;2023-03-21T09:50:41;24.73;;;12.80;;
1691;SDS011;843;52.054;8.552;2023-03-21T09:53:09;18.37;;;11.13;;
1691;SDS011;843;52.054;8.552;2023-03-21T09:55:38;32.77;;;14.07;;
1691;SDS011;843;52.054;8.552;2023-03-21T09:58:06;20.30;;;12.90;;
1691;SDS011;843;52.054;8.552;2023-03-21T10:00:34;21.17;;;12.70;;
1691;SDS011;843;52.054;8.552;2023-03-21T10:03:03;20.40;;;12.60;;
1691;SDS011;843;52.054;8.552;2023-03-21T10:05:34;22.07;;;13.80;;
1691;SDS011;843;52.054;8.552;2023-03-21T10:08:05;20.30;;;12.80;;
1691;SDS011;843;52.054;8.552;2023-03-21T10:10:33;25.33;;;13.67;;
1691;SDS011;843;52.054;8.552;2023-03-21T10:13:00;17.53;;;13.23;;
1691;SDS011;843;52.054;8.552;2023-03-21T10:15:27;19.23;;;12.60;;
1691;SDS011;843;52.054;8.552;2023-03-21T10:17:55;23.40;;;13.10;;
1691;SDS011;843;52.054;8.552;2023-03-21T10:20:24;22.43;;;12.13;;
1691;SDS011;843;52.054;8.552;2023-03-21T10:22:52;19.03;;;12.40;;
1691;SDS011;843;52.054;8.552;2023-03-21T10:25:20;15.03;;;11.13;;
1691;SDS011;843;52.054;8.552;2023-03-21T10:27:46;20.30;;;11.80;;
1691;SDS011;843;52.054;8.552;2023-03-21T10:30:17;22.00;;;12.70;;
1691;SDS011;843;52.054;8.552;2023-03-21T10:32:45;17.30;;;11.43;;
1691;SDS011;843;52.054;8.552;2023-03-21T10:35:11;21.50;;;13.33;;
1691;SDS011;843;52.054;8.552;2023-03-21T10:37:39;17.33;;;13.03;;
1691;SDS011;843;52.054;8.552;2023-03-21T10:40:09;18.97;;;12.37;;
1691;SDS011;843;52.054;8.552;2023-03-21T10:42:40;19.10;;;10.77;;
1691;SDS011;843;52.054;8.552;2023-03-21T10:45:13;20.37;;;12.00;;
1691;SDS011;843;52.054;8.552;2023-03-21T10:47:40;18.17;;;10.97;;
1691;SDS011;843;52.054;8.552;2023-03-21T10:50:10;20.37;;;12.03;;
1691;SDS011;843;52.054;8.552;2023-03-21T10:52:41;17.60;;;11.30;;
1691;SDS011;843;52.054;8.552;2023-03-21T10:55:17;15.37;;;11.33;;
1691;SDS011;843;52.054;8.552;2023-03-21T10:57:45;20.37;;;10.80;;
1691;SDS011;843;52.054;8.552;2023-03-21T11:00:12;21.20;;;12.60;;
1691;SDS011;843;52.054;8.552;2023-03-21T11:02:46;17.37;;;11.60;;
1691;SDS011;843;52.054;8.552;2023-03-21T11:05:16;17.83;;;10.90;;
1691;SDS011;843;52.054;8.552;2023-03-21T11:07:44;15.17;;;11.40;;
1691;SDS011;843;52.054;8.552;2023-03-21T11:10:11;21.07;;;10.53;;
1691;SDS011;843;52.054;8.552;2023-03-21T11:12:40;17.40;;;11.87;;
1691;SDS011;843;52.054;8.552;2023-03-21T11:15:13;18.33;;;12.03;;
1691;SDS011;843;52.054;8.552;2023-03-21T11:17:40;16.87;;;10.60;;
1691;SDS011;843;52.054;8.552;2023-03-21T11:20:07;21.93;;;11.80;;
1691;SDS011;843;52.054;8.552;2023-03-21T11:22:36;19.80;;;10.77;;
1691;SDS011;843;52.054;8.552;2023-03-21T11:25:04;20.20;;;10.73;;
1691;SDS011;843;52.054;8.552;2023-03-21T11:27:32;17.37;;;11.67;;
1691;SDS011;843;52.054;8.552;2023-03-21T11:30:00;22.93;;;12.67;;
1691;SDS011;843;52.054;8.552;2023-03-21T11:32:30;20.90;;;11.93;;
1691;SDS011;843;52.054;8.552;2023-03-21T11:34:58;17.70;;;11.60;;
1691;SDS011;843;52.054;8.552;2023-03-21T11:37:25;18.83;;;12.00;;
1691;SDS011;843;52.054;8.552;2023-03-21T11:39:56;18.60;;;12.07;;
1691;SDS011;843;52.054;8.552;2023-03-21T11:42:27;17.23;;;10.60;;
1691;SDS011;843;52.054;8.552;2023-03-21T11:44:57;17.60;;;10.87;;
1691;SDS011;843;52.054;8.552;2023-03-21T11:47:32;19.20;;;12.30;;
1691;SDS011;843;52.054;8.552;2023-03-21T11:49:59;19.70;;;10.60;;
1691;SDS011;843;52.054;8.552;2023-03-21T11:52:29;18.03;;;10.37;;
1691;SDS011;843;52.054;8.552;2023-03-21T11:55:01;13.23;;;10.37;;
1691;SDS011;843;52.054;8.552;2023-03-21T11:57:30;15.50;;;10.70;;
1691;SDS011;843;52.054;8.552;2023-03-21T12:00:00;14.33;;;10.67;;
1691;SDS011;843;52.054;8.552;2023-03-21T12:05:15;17.53;;;10.80;;
1691;SDS011;843;52.054;8.552;2023-03-21T12:07:48;20.83;;;11.37;;
1691;SDS011;843;52.054;8.552;2023-03-21T12:13:08;14.33;;;10.83;;
1691;SDS011;843;52.054;8.552;2023-03-21T12:15:39;18.23;;;11.27;;
1691;SDS011;843;52.054;8.552;2023-03-21T12:18:10;15.60;;;11.50;;
1691;SDS011;843;52.054;8.552;2023-03-21T12:20:39;20.17;;;10.50;;
1691;SDS011;843;52.054;8.552;2023-03-21T12:23:12;17.93;;;11.80;;
1691;SDS011;843;52.054;8.552;2023-03-21T12:25:41;16.03;;;10.17;;
1691;SDS011;843;52.054;8.552;2023-03-21T12:28:13;17.80;;;10.03;;
1691;SDS011;843;52.054;8.552;2023-03-21T12:30:46;14.90;;;10.30;;
1691;SDS011;843;52.054;8.552;2023-03-21T12:33:18;18.27;;;11.00;;
1691;SDS011;843;52.054;8.552;2023-03-21T12:35:51;24.00;;;11.67;;
1691;SDS011;843;52.054;8.552;2023-03-21T12:38:21;19.47;;;11.53;;
1691;SDS011;843;52.054;8.552;2023-03-21T12:40:54;17.17;;;11.30;;
1691;SDS011;843;52.054;8.552;2023-03-21T12:43:24;18.03;;;10.17;;
1691;SDS011;843;52.054;8.552;2023-03-21T12:45:52;14.60;;;10.50;;
1691;SDS011;843;52.054;8.552;2023-03-21T12:48:21;13.23;;;9.33;;
1691;SDS011;843;52.054;8.552;2023-03-21T12:50:51;16.80;;;9.60;;
1691;SDS011;843;52.054;8.552;2023-03-21T12:53:25;13.83;;;10.17;;
1691;SDS011;843;52.054;8.552;2023-03-21T12:55:55;13.10;;;9.80;;
1691;SDS011;843;52.054;8.552;2023-03-21T12:58:25;15.07;;;9.83;;
1691;SDS011;843;52.054;8.552;2023-03-21T13:00:54;15.10;;;10.27;;
1691;SDS011;843;52.054;8.552;2023-03-21T13:03:22;15.20;;;8.83;;
1691;SDS011;843;52.054;8.552;2023-03-21T13:05:52;11.43;;;9.50;;
1691;SDS011;843;52.054;8.552;2023-03-21T13:08:22;15.23;;;11.00;;
1691;SDS011;843;52.054;8.552;2023-03-21T13:10:49;16.47;;;9.40;;
1691;SDS011;843;52.054;8.552;2023-03-21T13:13:17;13.37;;;9.23;;
1691;SDS011;843;52.054;8.552;2023-03-21T13:15:49;12.23;;;8.73;;
1691;SDS011;843;52.054;8.552;2023-03-21T13:18:22;15.43;;;9.07;;
1691;SDS011;843;52.054;8.552;2023-03-21T13:20:53;16.10;;;9.00;;
1691;SDS011;843;52.054;8.552;2023-03-21T13:23:20;13.27;;;8.87;;
1691;SDS011;843;52.054;8.552;2023-03-21T13:25:47;13.30;;;9.27;;
1691;SDS011;843;52.054;8.552;2023-03-21T13:28:16;16.00;;;10.10;;
1691;SDS011;843;52.054;8.552;2023-03-21T13:30:43;9.23;;;8.23;;
1691;SDS011;843;52.054;8.552;2023-03-21T13:33:12;11.47;;;9.27;;
1691;SDS011;843;52.054;8.552;2023-03-21T13:35:39;12.57;;;7.80;;
1691;SDS011;843;52.054;8.552;2023-03-21T13:38:12;10.43;;;8.37;;
1691;SDS011;843;52.054;8.552;2023-03-21T13:40:41;9.73;;;7.77;;
1691;SDS011;843;52.054;8.552;2023-03-21T13:45:50;11.37;;;7.00;;
1691;SDS011;843;52.054;8.552;2023-03-21T13:48:24;8.77;;;6.20;;
1691;SDS011;843;52.054;8.552;2023-03-21T13:50:52;9.43;;;7.33;;
1691;SDS011;843;52.054;8.552;2023-03-21T13:53:30;7.87;;;6.60;;
1691;SDS011;843;52.054;8.552;2023-03-21T13:56:06;10.60;;;6.50;;
1691;SDS011;843;52.054;8.552;2023-03-21T13:58:33;11.27;;;6.60;;
1691;SDS011;843;52.054;8.552;2023-03-21T14:01:07;9.77;;;6.00;;
1691;SDS011;843;52.054;8.552;2023-03-21T14:03:36;10.33;;;6.03;;
1691;SDS011;843;52.054;8.552;2023-03-21T14:06:03;10.03;;;5.50;;
1691;SDS011;843;52.054;8.552;2023-03-21T14:08:33;9.97;;;5.80;;
1691;SDS011;843;52.054;8.552;2023-03-21T14:11:02;7.77;;;6.30;;
1691;SDS011;843;52.054;8.552;2023-03-21T14:13:30;8.67;;;6.10;;
1691;SDS011;843;52.054;8.552;2023-03-21T14:15:58;6.90;;;5.53;;
1691;SDS011;843;52.054;8.552;2023-03-21T14:18:26;10.60;;;6.23;;
1691;SDS011;843;52.054;8.552;2023-03-21T14:20:54;14.30;;;7.53;;
1691;SDS011;843;52.054;8.552;2023-03-21T14:23:20;7.63;;;5.63;;
1691;SDS011;843;52.054;8.552;2023-03-21T14:25:48;9.13;;;5.00;;
1691;SDS011;843;52.054;8.552;2023-03-21T14:28:16;7.30;;;5.27;;
1691;SDS011;843;52.054;8.552;2023-03-21T14:30:43;11.00;;;6.30;;
1691;SDS011;843;52.054;8.552;2023-03-21T14:33:12;8.67;;;5.37;;
1691;SDS011;843;52.054;8.552;2023-03-21T14:35:39;7.40;;;5.00;;
1691;SDS011;843;52.054;8.552;2023-03-21T14:38:07;8.30;;;5.80;;
1691;SDS011;843;52.054;8.552;2023-03-21T14:40:34;8.73;;;6.30;;
1691;SDS011;843;52.054;8.552;2023-03-21T14:43:04;8.50;;;5.27;;
1691;SDS011;843;52.054;8.552;2023-03-21T14:45:32;9.10;;;5.87;;
1691;SDS011;843;52.054;8.552;2023-03-21T14:48:00;7.73;;;5.07;;
1691;SDS011;843;52.054;8.552;2023-03-21T14:50:31;10.83;;;5.73;;
1691;SDS011;843;52.054;8.552;2023-03-21T14:53:00;11.43;;;5.77;;
1691;SDS011;843;52.054;8.552;2023-03-21T14:55:26;7.90;;;5.37;;
1691;SDS011;843;52.054;8.552;2023-03-21T14:57:53;6.27;;;5.17;;
1691;SDS011;843;52.054;8.552;2023-03-21T15:00:22;9.40;;;5.03;;
1691;SDS011;843;52.054;8.552;2023-03-21T15:02:50;6.10;;;5.33;;
1691;SDS011;843;52.054;8.552;2023-03-21T15:05:18;8.10;;;5.83;;
1691;SDS011;843;52.054;8.552;2023-03-21T15:07:51;8.87;;;5.40;;
1691;SDS011;843;52.054;8.552;2023-03-21T15:10:18;10.40;;;5.80;;
1691;SDS011;843;52.054;8.552;2023-03-21T15:12:49;9.33;;;5.50;;
1691;SDS011;843;52.054;8.552;2023-03-21T15:15:15;6.37;;;5.20;;
1691;SDS011;843;52.054;8.552;2023-03-21T15:17:43;6.80;;;4.80;;
1691;SDS011;843;52.054;8.552;2023-03-21T15:20:12;7.87;;;4.83;;
1691;SDS011;843;52.054;8.552;2023-03-21T15:22:39;4.80;;;3.77;;
1691;SDS011;843;52.054;8.552;2023-03-21T15:25:07;6.27;;;4.27;;